ロメ空港の過去48時間の天気

ロメ空港 (Lome)

現在時刻: 9/16 15:13 GMT (9/16 15:13 UTC) 以下の時間は現地時間です。

過去48時間のMETAR気象情報
時間 風向 風速(m/s) 視程 気温(℃) 湿度(%) 気圧(hPa) 天気現象
16 14:00 南南西 7 10km以上 30 70 1011
16 13:00 南南西 6 10km以上 30 70 1012
16 12:00 南南西 6 10km以上 30 75 1013
16 11:00 南西 6 10km以上 30 70 1013
16 10:00 南西 5 10km以上 29 74 1014
16 09:00 南西 6 10km以上 28 79 1014
16 08:00 西南西 4 10km以上 27 84 1014
16 07:00 西南西 3 8000m 26 89 1014
16 06:00 西北西 2 8000m 25 94 1013
16 05:00 西南西 3 10km以上 25 94 1013
16 04:00 南西 4 10km以上 25 94 1012
16 03:00 南西 4 10km以上 25 94 1012
16 02:00 南西 4 10km以上 25 94 1012
16 01:00 南西 4 10km以上 25 94 1012
16 00:00 南西 4 10km以上 25 94 1013
15 23:00 南西 5 10km以上 26 89 1013
15 22:00 南西 5 10km以上 26 89 1013
15 21:00 南西 5 10km以上 26 89 1013
15 20:00 南西 5 10km以上 26 89 1013
DXXX 161400Z 20013KT 180V240 9999 FEW014 FEW020TCU 30/24 Q1011 NOSIG
DXXX 161300Z 21012KT 180V240 9999 FEW014 FEW020TCU 30/24 Q1012 NOSIG
DXXX 161200Z 20011KT 170V230 9999 FEW014 30/25 Q1013 NOSIG
DXXX 161100Z 22011KT 170V250 9999 FEW014 30/24 Q1013 NOSIG
DXXX 161000Z 22010KT 180V260 9999 FEW013 29/24 Q1014 NOSIG
DXXX 160900Z 23012KT 9999 FEW012 28/24 Q1014 NOSIG
DXXX 160800Z 24008KT 9999 SCT010 27/24 Q1014 NOSIG
DXXX 160700Z 25006KT 8000 SCT008 26/24 Q1014 TEMPO BKN008
DXXX 160600Z 29003KT 8000 BKN008 25/24 Q1013 BECMG SCT008
DXXX 160500Z 24005KT 9999 SCT008 25/24 Q1013 NOSIG
DXXX 160400Z 23008KT 9999 SCT008 25/24 Q1012 NOSIG
DXXX 160300Z 22008KT 9999 FEW008 25/24 Q1012 NOSIG
DXXX 160200Z 22007KT 9999 SCT010 25/24 Q1012 NOSIG
DXXX 160100Z 22008KT 9999 FEW010 25/24 Q1012 NOSIG
DXXX 160000Z 22008KT 9999 FEW010 25/24 Q1013 NOSIG
DXXX 152300Z 22009KT 9999 SCT011 26/24 Q1013 NOSIG
DXXX 152200Z 22010KT 9999 FEW011 26/24 Q1013 NOSIG
DXXX 152100Z 22009KT 9999 FEW011 26/24 Q1013 NOSIG
DXXX 152000Z 22009KT 9999 FEW011 26/24 Q1013 NOSIG